createdAt,value
2022-11-20T00:01:25.266Z,96738.56
2022-11-20T00:03:54.664Z,96720.47
2022-11-20T00:06:23.346Z,96694.59
2022-11-20T00:08:51.950Z,96715.66
2022-11-20T00:11:21.855Z,96719.28
2022-11-20T00:13:51.851Z,96699.63
2022-11-20T00:16:22.014Z,96719.19
2022-11-20T00:18:50.507Z,96699.78
2022-11-20T00:21:26.102Z,96716.28
2022-11-20T00:23:55.920Z,96693.69
2022-11-20T00:26:25.682Z,96699.03
2022-11-20T00:28:58.680Z,96688.81
2022-11-20T00:31:27.203Z,96663.13
2022-11-20T00:33:55.544Z,96678.03
2022-11-20T00:36:25.695Z,96687.28
2022-11-20T00:38:54.778Z,96664.97
2022-11-20T00:41:23.255Z,96661.25
2022-11-20T00:43:55.119Z,96625.91
2022-11-20T00:46:24.750Z,96636.41
2022-11-20T00:48:53.223Z,96672.25
2022-11-20T00:51:24.226Z,96627.59
2022-11-20T00:53:52.690Z,96648.63
2022-11-20T00:56:21.808Z,96643.94
2022-11-20T00:58:50.313Z,96592.16
2022-11-20T01:01:25.468Z,96678.44
2022-11-20T01:03:55.509Z,96604.00
2022-11-20T01:06:28.495Z,96656.28
2022-11-20T01:08:58.542Z,96649.16
2022-11-20T01:11:28.693Z,96633.88
2022-11-20T01:13:57.485Z,96684.72
2022-11-20T01:16:28.157Z,96642.41
2022-11-20T01:18:58.603Z,96657.72
2022-11-20T01:21:27.967Z,96649.09
2022-11-20T01:23:56.366Z,96653.53
2022-11-20T01:26:29.820Z,96616.34
2022-11-20T01:28:58.275Z,96642.38
2022-11-20T01:31:32.336Z,96628.66
2022-11-20T01:34:02.334Z,96606.13
2022-11-20T01:36:31.337Z,96631.91
2022-11-20T01:39:05.560Z,96589.25
2022-11-20T01:41:52.786Z,96569.78
2022-11-20T01:44:23.478Z,96589.41
2022-11-20T01:47:02.128Z,96569.16
2022-11-20T01:49:40.248Z,96552.25
2022-11-20T01:52:23.232Z,96546.53
2022-11-20T01:54:57.804Z,96573.59
2022-11-20T01:57:26.488Z,96554.69
2022-11-20T02:00:01.646Z,96542.19
2022-11-20T02:02:29.922Z,96541.22
2022-11-20T02:04:59.109Z,96540.75
2022-11-20T02:07:27.536Z,96532.47
2022-11-20T02:09:58.858Z,96528.19
2022-11-20T02:12:45.727Z,96541.09
2022-11-20T02:15:14.118Z,96562.56
2022-11-20T02:17:42.441Z,96566.31
2022-11-20T02:20:13.158Z,96567.88
2022-11-20T02:22:50.382Z,96577.88
2022-11-20T02:25:18.843Z,96542.00
2022-11-20T02:27:47.144Z,96536.88
2022-11-20T02:30:15.437Z,96565.50
2022-11-20T02:32:43.772Z,96553.69
2022-11-20T02:35:32.553Z,96544.00
2022-11-20T02:38:02.120Z,96544.06
2022-11-20T02:40:30.737Z,96546.22
2022-11-20T02:42:59.164Z,96545.56
2022-11-20T02:45:27.601Z,96545.47
2022-11-20T02:47:56.537Z,96551.56
2022-11-20T02:50:24.868Z,96569.06
2022-11-20T02:52:53.161Z,96589.81
2022-11-20T02:55:21.448Z,96573.16
2022-11-20T02:57:49.741Z,96603.84
2022-11-20T03:00:18.789Z,96611.19
2022-11-20T03:02:47.104Z,96637.75
2022-11-20T03:05:15.510Z,96623.47
2022-11-20T03:07:45.032Z,96619.81
2022-11-20T03:10:13.532Z,96623.03
2022-11-20T03:12:41.850Z,96608.31
2022-11-20T03:15:10.718Z,96614.09
2022-11-20T03:17:39.082Z,96600.06
2022-11-20T03:20:08.212Z,96620.09
2022-11-20T03:22:36.595Z,96607.94
2022-11-20T03:25:05.376Z,96607.88
2022-11-20T03:27:35.651Z,96633.72
2022-11-20T03:30:04.234Z,96616.34
2022-11-20T03:32:32.563Z,96611.00
2022-11-20T03:35:01.466Z,96656.41
2022-11-20T03:37:29.814Z,96649.94
2022-11-20T03:39:58.029Z,96641.16
2022-11-20T03:42:44.821Z,96654.81
2022-11-20T03:45:15.047Z,96652.56
2022-11-20T03:47:43.920Z,96638.38
2022-11-20T03:50:15.902Z,96629.31
2022-11-20T03:52:44.288Z,96620.97
2022-11-20T03:55:13.825Z,96644.25
2022-11-20T03:57:42.148Z,96640.63
2022-11-20T04:00:11.709Z,96632.66
2022-11-20T04:02:40.012Z,96620.47
2022-11-20T04:05:08.556Z,96638.53
2022-11-20T04:07:37.034Z,96629.44
2022-11-20T04:10:05.903Z,96638.09
2022-11-20T04:12:34.800Z,96642.91
2022-11-20T04:15:03.142Z,96649.81
2022-11-20T04:17:31.476Z,96655.91
2022-11-20T04:19:59.810Z,96654.31
2022-11-20T04:22:28.146Z,96657.16
2022-11-20T04:24:56.476Z,96646.88
2022-11-20T04:27:24.771Z,96636.75
2022-11-20T04:29:53.063Z,96619.72
2022-11-20T04:32:21.897Z,96633.59
2022-11-20T04:34:50.237Z,96647.88
2022-11-20T04:37:18.506Z,96656.03
2022-11-20T04:39:46.824Z,96669.91
2022-11-20T04:42:30.029Z,96663.72
2022-11-20T04:44:59.173Z,96676.63
2022-11-20T04:47:27.537Z,96665.75
2022-11-20T04:49:56.553Z,96663.75
2022-11-20T04:52:24.975Z,96659.28
2022-11-20T04:54:56.004Z,96642.78
2022-11-20T04:57:24.311Z,96641.50
2022-11-20T04:59:52.646Z,96653.03
2022-11-20T05:02:21.549Z,96678.63
2022-11-20T05:04:50.031Z,96663.66
2022-11-20T05:07:18.428Z,96679.19
2022-11-20T05:09:46.792Z,96685.25
2022-11-20T05:12:15.121Z,96689.78
2022-11-20T05:14:43.473Z,96715.06
2022-11-20T05:17:13.278Z,96700.56
2022-11-20T05:19:41.518Z,96714.81
2022-11-20T05:22:10.299Z,96723.19
2022-11-20T05:24:38.613Z,96735.91
2022-11-20T05:27:07.652Z,96754.28
2022-11-20T05:29:35.966Z,96741.59
2022-11-20T05:32:07.156Z,96756.69
2022-11-20T05:34:35.481Z,96770.63
2022-11-20T05:37:04.220Z,96772.28
2022-11-20T05:39:32.590Z,96777.50
2022-11-20T05:42:19.623Z,96794.25
2022-11-20T05:44:47.953Z,96794.09
2022-11-20T05:47:16.325Z,96804.25
2022-11-20T05:49:44.642Z,96808.31
2022-11-20T05:52:12.955Z,96820.47
2022-11-20T05:54:41.909Z,96818.28
2022-11-20T05:57:10.281Z,96822.41
2022-11-20T05:59:39.155Z,96835.84
2022-11-20T06:02:07.425Z,96861.28
2022-11-20T06:04:35.689Z,96883.13
2022-11-20T06:07:04.128Z,96887.34
2022-11-20T06:09:32.502Z,96897.47
2022-11-20T06:12:00.884Z,96895.81
2022-11-20T06:14:29.258Z,96897.31
2022-11-20T06:16:57.644Z,96903.66
2022-11-20T06:19:26.726Z,96901.59
2022-11-20T06:21:55.032Z,96917.94
2022-11-20T06:24:24.120Z,96933.19
2022-11-20T06:26:52.459Z,96937.09
2022-11-20T06:29:21.020Z,96941.94
2022-11-20T06:31:49.622Z,96939.13
2022-11-20T06:34:17.934Z,96943.44
2022-11-20T06:36:46.273Z,96935.91
2022-11-20T06:39:14.583Z,96942.38
2022-11-20T06:41:42.981Z,96953.81
2022-11-20T06:44:11.946Z,96964.09
2022-11-20T06:46:40.311Z,96974.41
2022-11-20T06:49:08.546Z,96958.13
2022-11-20T06:51:37.438Z,96969.25
2022-11-20T06:54:05.907Z,96977.13
2022-11-20T06:56:35.374Z,96983.81
2022-11-20T06:59:07.717Z,96974.50
2022-11-20T07:01:36.322Z,96974.22
2022-11-20T07:04:05.354Z,96977.25
2022-11-20T07:06:33.847Z,96985.97
2022-11-20T07:09:02.855Z,96979.69
2022-11-20T07:11:31.694Z,96968.91
2022-11-20T07:14:00.145Z,96968.75
2022-11-20T07:16:29.939Z,96979.16
2022-11-20T07:18:58.852Z,96980.13
2022-11-20T07:21:27.196Z,96981.84
2022-11-20T07:23:56.335Z,96990.84
2022-11-20T07:26:25.150Z,96991.72
2022-11-20T07:28:53.521Z,96992.69
2022-11-20T07:31:22.087Z,96978.72
2022-11-20T07:33:50.449Z,96985.47
2022-11-20T07:36:18.798Z,96987.00
2022-11-20T07:38:47.642Z,96995.22
2022-11-20T07:41:16.568Z,96996.34
2022-11-20T07:43:44.957Z,97007.66
2022-11-20T07:46:14.717Z,97003.56
2022-11-20T07:48:43.026Z,97011.00
2022-11-20T07:51:11.438Z,97002.97
2022-11-20T07:53:40.948Z,96996.00
2022-11-20T07:56:09.324Z,96989.09
2022-11-20T07:58:37.769Z,96993.75
2022-11-20T08:01:07.430Z,96997.00
2022-11-20T08:03:36.089Z,97002.00
2022-11-20T08:06:04.644Z,97009.13
2022-11-20T08:08:34.001Z,97009.13
2022-11-20T08:11:35.093Z,96997.03
2022-11-20T08:14:15.641Z,97011.91
2022-11-20T08:16:48.219Z,97006.38
2022-11-20T08:19:17.801Z,97007.25
2022-11-20T08:21:46.310Z,96995.59
2022-11-20T08:24:14.794Z,96996.78
2022-11-20T08:26:43.704Z,96995.63
2022-11-20T08:29:12.851Z,96985.22
2022-11-20T08:31:41.186Z,96989.47
2022-11-20T08:34:10.743Z,96991.38
2022-11-20T08:36:41.652Z,96985.47
2022-11-20T08:39:13.360Z,96981.09
2022-11-20T08:41:45.169Z,96967.56
2022-11-20T08:44:13.865Z,96964.47
2022-11-20T08:46:44.801Z,96965.38
2022-11-20T08:49:13.644Z,96951.97
2022-11-20T08:51:42.530Z,96945.34
2022-11-20T08:54:11.986Z,96943.50
2022-11-20T08:56:40.317Z,96949.31
2022-11-20T08:59:43.861Z,96935.53
2022-11-20T09:01:56.998Z,96943.06
2022-11-20T09:04:25.403Z,96962.28
2022-11-20T09:06:53.789Z,96943.31
2022-11-20T09:09:22.492Z,96950.50
2022-11-20T09:11:51.550Z,96952.13
2022-11-20T09:14:19.845Z,96940.06
2022-11-20T09:16:48.776Z,96952.44
2022-11-20T09:19:35.189Z,96940.69
2022-11-20T09:22:04.424Z,96939.59
2022-11-20T09:24:33.669Z,96941.63
2022-11-20T09:27:05.892Z,96929.50
2022-11-20T09:29:34.377Z,96937.44
2022-11-20T09:32:02.794Z,96954.50
2022-11-20T09:34:31.761Z,96962.28
2022-11-20T09:37:04.509Z,96991.50
2022-11-20T09:39:41.147Z,96999.53
2022-11-20T09:42:26.134Z,97009.34
2022-11-20T09:45:25.391Z,97003.72
2022-11-20T09:48:01.112Z,96991.19
2022-11-20T09:50:37.427Z,96973.09
2022-11-20T09:53:31.928Z,96944.34
2022-11-20T09:56:03.345Z,96936.16
2022-11-20T09:58:43.129Z,96943.84
2022-11-20T10:01:19.296Z,96947.44
2022-11-20T10:04:13.329Z,96929.38
2022-11-20T10:10:05.954Z,96935.06
2022-11-20T10:13:02.134Z,96932.31
2022-11-20T10:15:35.315Z,96919.84
2022-11-20T10:18:09.616Z,96938.97
2022-11-20T10:20:52.570Z,96918.44
2022-11-20T10:23:35.774Z,96903.22
2022-11-20T10:26:06.819Z,96912.78
2022-11-20T10:29:03.429Z,96922.31
2022-11-20T10:31:41.908Z,96896.19
2022-11-20T10:34:36.467Z,96865.53
2022-11-20T10:37:23.507Z,96867.44
2022-11-20T10:40:22.228Z,96874.03
2022-11-20T10:43:04.167Z,96892.44
2022-11-20T10:46:00.427Z,96889.00
2022-11-20T10:48:30.400Z,96877.44
2022-11-20T10:51:09.516Z,96873.25
2022-11-20T10:54:03.423Z,96819.72
2022-11-20T10:56:50.447Z,96791.50
2022-11-20T10:59:33.615Z,96790.63
2022-11-20T11:02:03.570Z,96778.84
2022-11-20T11:04:41.062Z,96791.78
2022-11-20T11:07:22.665Z,96794.16
2022-11-20T11:09:57.128Z,96793.41
2022-11-20T11:12:29.454Z,96800.63
2022-11-20T11:14:58.933Z,96826.28
2022-11-20T11:17:32.203Z,96830.56
2022-11-20T11:20:13.028Z,96831.47
2022-11-20T11:22:56.460Z,96835.75
2022-11-20T11:25:42.841Z,96837.56
2022-11-20T11:28:22.449Z,96855.81
2022-11-20T11:30:52.873Z,96858.34
2022-11-20T11:33:24.628Z,96875.91
2022-11-20T11:36:07.291Z,96879.19
2022-11-20T11:38:49.690Z,96886.63
2022-11-20T11:41:24.349Z,96886.16
2022-11-20T11:44:13.761Z,96877.53
2022-11-20T11:46:46.357Z,96899.19
2022-11-20T11:49:18.419Z,96900.53
2022-11-20T11:55:10.077Z,96944.38
2022-11-20T11:58:22.262Z,96951.84
2022-11-20T12:01:05.155Z,96942.69
2022-11-20T12:03:43.648Z,96910.34
2022-11-20T12:06:16.949Z,96831.69
2022-11-20T12:09:15.291Z,96902.06
2022-11-20T12:12:19.420Z,96908.69
2022-11-20T12:38:23.262Z,96823.59
2022-11-20T12:41:05.562Z,96830.06
2022-11-20T12:44:23.711Z,96839.72
2022-11-20T12:47:14.504Z,96838.06
2022-11-20T12:49:50.461Z,96844.00
2022-11-20T12:52:40.898Z,96841.78
2022-11-20T12:56:05.838Z,96843.69
2022-11-20T12:58:50.029Z,96837.44
2022-11-20T13:02:01.180Z,96825.13
2022-11-20T13:04:38.661Z,96831.78
2022-11-20T13:07:14.217Z,96829.13
2022-11-20T13:09:48.606Z,96833.47
2022-11-20T13:12:49.440Z,96843.78
2022-11-20T13:15:35.303Z,96866.34
2022-11-20T13:18:05.395Z,96855.94
2022-11-20T13:20:54.424Z,96838.00
2022-11-20T13:23:28.976Z,96835.75
2022-11-20T13:26:09.937Z,96811.25
2022-11-20T13:28:40.949Z,96784.56
2022-11-20T13:31:32.702Z,96771.53
2022-11-20T13:34:11.956Z,96757.97
2022-11-20T13:36:54.493Z,96750.69
2022-11-20T13:39:35.411Z,96760.72
2022-11-20T13:42:23.413Z,96759.63
2022-11-20T13:44:57.356Z,96771.94
2022-11-20T13:47:33.861Z,96776.81
2022-11-20T13:50:11.950Z,96792.13
2022-11-20T13:53:07.093Z,96804.91
2022-11-20T13:56:04.897Z,96809.53
2022-11-20T13:59:12.149Z,96800.66
2022-11-20T14:01:45.782Z,96796.66
2022-11-20T14:04:26.540Z,96821.41
2022-11-20T14:06:59.440Z,96819.69
2022-11-20T14:09:38.069Z,96826.25
2022-11-20T14:12:19.551Z,96821.50
2022-11-20T14:14:54.129Z,96831.25
2022-11-20T14:17:38.529Z,96830.59
2022-11-20T14:20:15.467Z,96842.28
2022-11-20T14:22:57.045Z,96845.50
2022-11-20T14:25:28.835Z,96849.00
2022-11-20T14:28:03.033Z,96846.03
2022-11-20T14:30:43.927Z,96842.63
2022-11-20T14:33:13.521Z,96845.66
2022-11-20T14:35:57.778Z,96846.97
2022-11-20T14:38:28.016Z,96838.78
2022-11-20T14:41:10.555Z,96828.69
2022-11-20T14:43:39.209Z,96826.56
2022-11-20T14:46:09.512Z,96834.81
2022-11-20T14:48:52.433Z,96830.94
2022-11-20T14:51:36.367Z,96829.09
2022-11-20T14:54:23.513Z,96831.94
2022-11-20T14:57:03.013Z,96846.31
2022-11-20T14:59:33.107Z,96858.06
2022-11-20T15:02:12.522Z,96848.41
2022-11-20T15:04:53.949Z,96849.19
2022-11-20T15:07:32.651Z,96857.97
2022-11-20T15:10:07.924Z,96861.31
2022-11-20T15:13:02.667Z,96862.16
2022-11-20T15:15:49.183Z,96858.97
2022-11-20T15:18:22.635Z,96856.09
2022-11-20T15:20:52.435Z,96871.06
2022-11-20T15:23:24.685Z,96868.84
2022-11-20T15:25:54.454Z,96875.16
2022-11-20T15:28:33.712Z,96862.50
2022-11-20T15:31:05.074Z,96851.44
2022-11-20T15:33:35.981Z,96869.75
2022-11-20T15:36:07.200Z,96862.88
2022-11-20T15:38:35.711Z,96863.63
2022-11-20T15:41:06.429Z,96865.88
2022-11-20T15:43:35.656Z,96858.75
2022-11-20T15:46:12.964Z,96863.72
2022-11-20T15:48:53.604Z,96860.13
2022-11-20T15:51:33.351Z,96867.31
2022-11-20T15:54:03.273Z,96876.75
2022-11-20T15:56:34.411Z,96876.81
2022-11-20T15:59:03.191Z,96891.44
2022-11-20T16:01:32.403Z,96896.53
2022-11-20T16:04:06.178Z,96890.56
2022-11-20T16:06:37.394Z,96904.63
2022-11-20T16:09:06.017Z,96904.63
2022-11-20T16:11:38.052Z,96925.66
2022-11-20T16:14:26.460Z,96926.31
2022-11-20T16:16:55.146Z,96942.66
2022-11-20T16:19:23.589Z,96945.41
2022-11-20T16:21:52.626Z,96940.47
2022-11-20T16:24:21.557Z,96947.56
2022-11-20T16:26:50.334Z,96965.28
2022-11-20T16:29:21.134Z,96966.72
2022-11-20T16:31:50.724Z,96973.38
2022-11-20T16:34:20.964Z,96984.91
2022-11-20T16:36:54.384Z,97009.97
2022-11-20T16:39:27.310Z,97001.59
2022-11-20T16:41:57.656Z,96967.69
2022-11-20T16:44:26.412Z,96963.69
2022-11-20T16:46:55.861Z,96965.69
2022-11-20T16:49:28.878Z,96955.84
2022-11-20T16:52:08.612Z,96954.44
2022-11-20T16:54:42.248Z,96940.84
2022-11-20T16:57:12.379Z,96923.03
2022-11-20T16:59:49.009Z,96915.56
2022-11-20T17:02:20.965Z,96911.28
2022-11-20T17:04:52.452Z,96908.28
2022-11-20T17:07:22.103Z,96916.81
2022-11-20T17:09:51.142Z,96904.22
2022-11-20T17:12:22.405Z,96880.72
2022-11-20T17:14:52.429Z,96869.22
2022-11-20T17:17:27.467Z,96867.47
2022-11-20T17:19:56.112Z,96846.22
2022-11-20T17:22:25.282Z,96849.91
2022-11-20T17:24:55.516Z,96860.66
2022-11-20T17:27:27.073Z,96850.38
2022-11-20T17:30:02.473Z,96849.81
2022-11-20T17:32:32.132Z,96850.53
2022-11-20T17:35:02.092Z,96844.25
2022-11-20T17:37:33.942Z,96851.66
2022-11-20T17:40:02.735Z,96858.03
2022-11-20T17:42:37.769Z,96845.38
2022-11-20T17:45:06.762Z,96839.19
2022-11-20T17:47:37.386Z,96830.91
2022-11-20T17:50:06.888Z,96842.47
2022-11-20T17:52:36.144Z,96830.31
2022-11-20T17:55:04.822Z,96821.63
2022-11-20T17:57:53.756Z,96825.66
2022-11-20T18:00:22.667Z,96816.28
2022-11-20T18:02:58.182Z,96801.25
2022-11-20T18:05:27.263Z,96795.75
2022-11-20T18:07:55.795Z,96795.94
2022-11-20T18:10:24.377Z,96796.53
2022-11-20T18:12:56.249Z,96799.25
2022-11-20T18:15:26.481Z,96785.38
2022-11-20T18:17:55.717Z,96774.72
2022-11-20T18:20:29.737Z,96763.19
2022-11-20T18:23:03.152Z,96738.44
2022-11-20T18:25:35.076Z,96712.16
2022-11-20T18:28:04.960Z,96709.66
2022-11-20T18:30:39.111Z,96715.28
2022-11-20T18:33:09.738Z,96717.38
2022-11-20T18:35:45.313Z,96709.38
2022-11-20T18:38:17.005Z,96727.75
2022-11-20T18:40:48.575Z,96726.03
2022-11-20T18:43:36.582Z,96718.81
2022-11-20T18:46:08.185Z,96703.56
2022-11-20T18:48:38.941Z,96704.47
2022-11-20T18:51:09.879Z,96685.88
2022-11-20T18:53:40.845Z,96658.66
2022-11-20T18:56:13.319Z,96682.06
2022-11-20T18:58:46.457Z,96706.75
2022-11-20T19:01:18.163Z,96713.75
2022-11-20T19:03:47.880Z,96703.91
2022-11-20T19:06:17.564Z,96699.47
2022-11-20T19:08:46.795Z,96700.91
2022-11-20T19:11:18.602Z,96711.38
2022-11-20T19:13:48.129Z,96707.44
2022-11-20T19:16:22.700Z,96720.66
2022-11-20T19:18:52.723Z,96721.56
2022-11-20T19:21:23.406Z,96714.31
2022-11-20T19:23:55.891Z,96721.28
2022-11-20T19:26:24.489Z,96719.88
2022-11-20T19:28:53.328Z,96717.09
2022-11-20T19:31:24.883Z,96713.09
2022-11-20T19:33:56.651Z,96703.28
2022-11-20T19:36:34.355Z,96709.56
2022-11-20T19:39:03.341Z,96697.38
2022-11-20T19:41:33.278Z,96688.47
2022-11-20T19:44:14.406Z,96674.03
2022-11-20T19:46:45.620Z,96662.63
2022-11-20T19:49:17.457Z,96655.53
2022-11-20T19:51:56.195Z,96650.28
2022-11-20T19:54:31.574Z,96668.41
2022-11-20T19:57:05.964Z,96679.03
2022-11-20T19:59:43.960Z,96679.31
2022-11-20T20:02:14.831Z,96683.78
2022-11-20T20:04:46.883Z,96690.63
2022-11-20T20:07:15.346Z,96687.47
2022-11-20T20:09:45.380Z,96678.47
2022-11-20T20:12:15.071Z,96664.97
2022-11-20T20:14:46.143Z,96649.72
2022-11-20T20:17:14.825Z,96635.19
2022-11-20T20:19:45.738Z,96633.97
2022-11-20T20:22:14.159Z,96623.66
2022-11-20T20:24:44.187Z,96613.94
2022-11-20T20:27:14.570Z,96605.66
2022-11-20T20:29:43.044Z,96598.28
2022-11-20T20:32:11.580Z,96594.94
2022-11-20T20:34:41.829Z,96605.38
2022-11-20T20:37:10.327Z,96614.03
2022-11-20T20:39:38.799Z,96603.03
2022-11-20T20:42:07.339Z,96592.28
2022-11-20T20:44:54.560Z,96603.56
2022-11-20T20:47:25.808Z,96584.53
2022-11-20T20:49:54.158Z,96586.28
2022-11-20T20:52:23.650Z,96590.53
2022-11-20T20:54:52.072Z,96569.69
2022-11-20T20:57:21.389Z,96563.31
2022-11-20T20:59:50.680Z,96560.00
2022-11-20T21:02:20.426Z,96548.91
2022-11-20T21:04:49.542Z,96554.50
2022-11-20T21:07:18.300Z,96535.03
2022-11-20T21:09:47.010Z,96540.81
2022-11-20T21:12:15.833Z,96531.81
2022-11-20T21:14:44.319Z,96523.97
2022-11-20T21:17:15.363Z,96521.06
2022-11-20T21:19:44.038Z,96537.53
2022-11-20T21:22:12.392Z,96534.19
2022-11-20T21:24:40.798Z,96530.63
2022-11-20T21:27:09.180Z,96532.44
2022-11-20T21:29:37.522Z,96535.16
2022-11-20T21:32:05.826Z,96538.00
2022-11-20T21:34:34.344Z,96549.56
2022-11-20T21:37:02.707Z,96547.38
2022-11-20T21:39:31.540Z,96547.09
2022-11-20T21:42:02.280Z,96534.16
2022-11-20T21:44:31.808Z,96529.84
2022-11-20T21:47:00.481Z,96521.47
2022-11-20T21:49:28.890Z,96523.69
2022-11-20T21:51:57.518Z,96511.25
2022-11-20T21:54:26.837Z,96488.81
2022-11-20T21:56:55.402Z,96496.22
2022-11-20T21:59:23.919Z,96491.75
2022-11-20T22:01:52.417Z,96482.16
2022-11-20T22:04:21.622Z,96464.78
2022-11-20T22:06:50.352Z,96450.09
2022-11-20T22:09:18.752Z,96449.28
2022-11-20T22:11:47.344Z,96469.69
2022-11-20T22:14:21.491Z,96474.94
2022-11-20T22:16:50.778Z,96480.59
2022-11-20T22:19:20.372Z,96493.47
2022-11-20T22:21:49.008Z,96494.88
2022-11-20T22:24:18.604Z,96493.75
2022-11-20T22:26:47.906Z,96496.81
2022-11-20T22:29:17.890Z,96486.25
2022-11-20T22:31:46.296Z,96462.44
2022-11-20T22:34:14.777Z,96416.63
2022-11-20T22:36:43.126Z,96380.81
2022-11-20T22:39:11.414Z,96310.31
2022-11-20T22:41:39.695Z,96257.66
2022-11-20T22:44:08.370Z,96262.53
2022-11-20T22:46:37.435Z,96259.19
2022-11-20T22:49:07.113Z,96272.69
2022-11-20T22:51:40.145Z,96269.16
2022-11-20T22:54:09.685Z,96271.72
2022-11-20T22:56:37.905Z,96256.38
2022-11-20T22:59:06.844Z,96261.13
2022-11-20T23:01:35.634Z,96258.59
2022-11-20T23:04:09.800Z,96261.31
2022-11-20T23:06:38.414Z,96275.31
2022-11-20T23:09:07.141Z,96242.41
2022-11-20T23:11:36.196Z,96255.06
2022-11-20T23:14:12.769Z,96213.56
2022-11-20T23:16:41.091Z,96218.41
2022-11-20T23:19:11.451Z,96157.06
2022-11-20T23:21:40.773Z,96163.88
2022-11-20T23:24:10.499Z,96156.34
2022-11-20T23:26:39.853Z,96160.78
2022-11-20T23:29:08.348Z,96128.28
2022-11-20T23:31:36.751Z,96123.13
2022-11-20T23:34:05.151Z,96119.28
2022-11-20T23:36:33.463Z,96104.56
2022-11-20T23:39:03.073Z,96101.94
2022-11-20T23:41:31.425Z,96093.41
2022-11-20T23:43:59.740Z,96097.75
2022-11-20T23:46:28.086Z,96077.63
2022-11-20T23:48:56.439Z,96083.25
2022-11-20T23:51:24.708Z,96083.94
2022-11-20T23:53:52.988Z,96090.94
2022-11-20T23:56:21.201Z,96084.19
2022-11-20T23:58:50.214Z,96099.94
